sensor_id;sensor_type;location;lat;lon;timestamp;pressure;altitude;pressure_sealevel;temperature;humidity
56894;BME280;43392;50.078;13.704;2022-10-17T00:01:56;97757.44;;;13.72;89.40
56894;BME280;43392;50.078;13.704;2022-10-17T00:04:22;97763.94;;;13.71;89.03
56894;BME280;43392;50.078;13.704;2022-10-17T00:06:49;97764.47;;;13.68;89.53
56894;BME280;43392;50.078;13.704;2022-10-17T00:09:16;97765.81;;;13.70;89.52
56894;BME280;43392;50.078;13.704;2022-10-17T00:11:42;97770.94;;;13.72;89.28
56894;BME280;43392;50.078;13.704;2022-10-17T00:14:10;97769.31;;;13.71;89.02
56894;BME280;43392;50.078;13.704;2022-10-17T00:16:37;97767.94;;;13.73;89.70
56894;BME280;43392;50.078;13.704;2022-10-17T00:19:04;97779.53;;;13.74;89.31
56894;BME280;43392;50.078;13.704;2022-10-17T00:21:33;97773.63;;;13.67;89.71
56894;BME280;43392;50.078;13.704;2022-10-17T00:24:00;97772.28;;;13.69;89.33
56894;BME280;43392;50.078;13.704;2022-10-17T00:26:27;97770.13;;;13.66;89.72
56894;BME280;43392;50.078;13.704;2022-10-17T00:28:53;97783.38;;;13.63;89.37
56894;BME280;43392;50.078;13.704;2022-10-17T00:31:23;97776.09;;;13.58;89.68
56894;BME280;43392;50.078;13.704;2022-10-17T00:33:51;97780.69;;;13.53;90.05
56894;BME280;43392;50.078;13.704;2022-10-17T00:36:20;97778.84;;;13.43;90.29
56894;BME280;43392;50.078;13.704;2022-10-17T00:38:49;97777.50;;;13.41;89.92
56894;BME280;43392;50.078;13.704;2022-10-17T00:41:18;97767.25;;;13.32;89.82
56894;BME280;43392;50.078;13.704;2022-10-17T00:43:53;97774.00;;;13.35;90.01
56894;BME280;43392;50.078;13.704;2022-10-17T00:46:23;97780.19;;;13.36;89.96
56894;BME280;43392;50.078;13.704;2022-10-17T00:48:52;97777.50;;;13.36;90.27
56894;BME280;43392;50.078;13.704;2022-10-17T00:51:24;97780.72;;;13.32;89.98
56894;BME280;43392;50.078;13.704;2022-10-17T00:53:54;97778.63;;;13.24;89.73
56894;BME280;43392;50.078;13.704;2022-10-17T00:56:21;97775.94;;;13.14;90.08
56894;BME280;43392;50.078;13.704;2022-10-17T00:58:48;97774.84;;;13.10;90.35
56894;BME280;43392;50.078;13.704;2022-10-17T01:01:15;97779.41;;;13.05;90.43
56894;BME280;43392;50.078;13.704;2022-10-17T01:03:43;97776.97;;;13.03;90.55
56894;BME280;43392;50.078;13.704;2022-10-17T01:06:10;97775.63;;;13.01;90.93
56894;BME280;43392;50.078;13.704;2022-10-17T01:08:37;97773.22;;;12.99;90.89
56894;BME280;43392;50.078;13.704;2022-10-17T01:11:12;97775.38;;;12.97;90.94
56894;BME280;43392;50.078;13.704;2022-10-17T01:13:45;97784.53;;;12.91;91.17
56894;BME280;43392;50.078;13.704;2022-10-17T01:16:18;97786.44;;;12.91;91.08
56894;BME280;43392;50.078;13.704;2022-10-17T01:18:56;97783.47;;;12.87;91.35
56894;BME280;43392;50.078;13.704;2022-10-17T01:21:32;97781.81;;;12.86;91.04
56894;BME280;43392;50.078;13.704;2022-10-17T01:24:46;97778.59;;;12.84;91.29
56894;BME280;43392;50.078;13.704;2022-10-17T01:27:41;97787.78;;;12.83;91.70
56894;BME280;43392;50.078;13.704;2022-10-17T01:30:31;97789.94;;;12.81;91.55
56894;BME280;43392;50.078;13.704;2022-10-17T01:33:07;97789.66;;;12.83;91.79
56894;BME280;43392;50.078;13.704;2022-10-17T01:35:39;97788.84;;;12.77;91.52
56894;BME280;43392;50.078;13.704;2022-10-17T01:38:09;97786.94;;;12.73;92.04
56894;BME280;43392;50.078;13.704;2022-10-17T01:40:41;97795.00;;;12.62;92.58
56894;BME280;43392;50.078;13.704;2022-10-17T01:43:15;97785.06;;;12.53;92.84
56894;BME280;43392;50.078;13.704;2022-10-17T01:45:48;97788.84;;;12.57;92.73
56894;BME280;43392;50.078;13.704;2022-10-17T01:48:20;97794.50;;;12.65;92.73
56894;BME280;43392;50.078;13.704;2022-10-17T01:50:50;97793.94;;;12.63;92.63
56894;BME280;43392;50.078;13.704;2022-10-17T01:53:23;97791.78;;;12.60;93.34
56894;BME280;43392;50.078;13.704;2022-10-17T01:55:53;97794.47;;;12.60;93.57
56894;BME280;43392;50.078;13.704;2022-10-17T01:58:25;97784.00;;;12.59;93.05
56894;BME280;43392;50.078;13.704;2022-10-17T02:00:55;97793.41;;;12.56;93.30
56894;BME280;43392;50.078;13.704;2022-10-17T02:03:27;97788.28;;;12.55;93.21
56894;BME280;43392;50.078;13.704;2022-10-17T02:05:54;97788.56;;;12.53;92.88
56894;BME280;43392;50.078;13.704;2022-10-17T02:08:25;97783.44;;;12.52;93.04
56894;BME280;43392;50.078;13.704;2022-10-17T02:10:55;97787.22;;;12.51;93.07
56894;BME280;43392;50.078;13.704;2022-10-17T02:13:34;97781.81;;;12.51;92.70
56894;BME280;43392;50.078;13.704;2022-10-17T02:16:11;97786.66;;;12.49;92.10
56894;BME280;43392;50.078;13.704;2022-10-17T02:18:46;97769.16;;;12.36;92.48
56894;BME280;43392;50.078;13.704;2022-10-17T02:21:22;97782.34;;;12.28;92.04
56894;BME280;43392;50.078;13.704;2022-10-17T02:23:52;97780.97;;;12.20;92.31
56894;BME280;43392;50.078;13.704;2022-10-17T02:26:25;97780.66;;;12.07;92.18
56894;BME280;43392;50.078;13.704;2022-10-17T02:29:02;97789.50;;;12.02;92.36
56894;BME280;43392;50.078;13.704;2022-10-17T02:31:36;97780.63;;;11.96;92.30
56894;BME280;43392;50.078;13.704;2022-10-17T02:34:07;97781.69;;;11.90;92.39
56894;BME280;43392;50.078;13.704;2022-10-17T02:36:38;97786.50;;;11.88;92.59
56894;BME280;43392;50.078;13.704;2022-10-17T02:39:08;97785.44;;;11.89;92.56
56894;BME280;43392;50.078;13.704;2022-10-17T02:41:35;97787.56;;;11.87;92.35
56894;BME280;43392;50.078;13.704;2022-10-17T02:44:05;97798.84;;;11.84;92.23
56894;BME280;43392;50.078;13.704;2022-10-17T02:46:34;97804.75;;;11.81;92.35
56894;BME280;43392;50.078;13.704;2022-10-17T02:49:09;97807.72;;;11.85;92.10
56894;BME280;43392;50.078;13.704;2022-10-17T02:51:43;97801.00;;;11.87;92.09
56894;BME280;43392;50.078;13.704;2022-10-17T02:54:14;97801.03;;;11.92;92.59
56894;BME280;43392;50.078;13.704;2022-10-17T02:56:49;97801.03;;;11.92;92.10
56894;BME280;43392;50.078;13.704;2022-10-17T02:59:20;97807.75;;;11.90;91.82
56894;BME280;43392;50.078;13.704;2022-10-17T03:01:48;97809.88;;;11.83;91.20
56894;BME280;43392;50.078;13.704;2022-10-17T03:04:17;97805.78;;;11.70;90.79
56894;BME280;43392;50.078;13.704;2022-10-17T03:06:45;97801.41;;;11.59;91.07
56894;BME280;43392;50.078;13.704;2022-10-17T03:09:13;97813.13;;;11.48;91.37
56894;BME280;43392;50.078;13.704;2022-10-17T03:11:39;97808.53;;;11.39;91.72
56894;BME280;43392;50.078;13.704;2022-10-17T03:14:06;97808.78;;;11.37;92.03
56894;BME280;43392;50.078;13.704;2022-10-17T03:16:33;97809.88;;;11.41;91.99
56894;BME280;43392;50.078;13.704;2022-10-17T03:18:59;97808.00;;;11.42;91.97
56894;BME280;43392;50.078;13.704;2022-10-17T03:21:27;97813.13;;;11.43;91.97
56894;BME280;43392;50.078;13.704;2022-10-17T03:23:54;97805.59;;;11.40;91.79
56894;BME280;43392;50.078;13.704;2022-10-17T03:26:20;97812.03;;;11.39;91.92
56894;BME280;43392;50.078;13.704;2022-10-17T03:28:47;97809.84;;;11.36;92.05
56894;BME280;43392;50.078;13.704;2022-10-17T03:31:15;97807.94;;;11.31;92.26
56894;BME280;43392;50.078;13.704;2022-10-17T03:33:42;97816.50;;;11.23;92.22
56894;BME280;43392;50.078;13.704;2022-10-17T03:36:12;97808.91;;;11.15;92.26
56894;BME280;43392;50.078;13.704;2022-10-17T03:38:40;97805.88;;;11.02;92.71
56894;BME280;43392;50.078;13.704;2022-10-17T03:41:08;97816.63;;;11.02;93.11
56894;BME280;43392;50.078;13.704;2022-10-17T03:43:35;97816.56;;;10.97;93.45
56894;BME280;43392;50.078;13.704;2022-10-17T03:46:02;97825.19;;;10.99;93.42
56894;BME280;43392;50.078;13.704;2022-10-17T03:48:30;97824.09;;;11.00;93.59
56894;BME280;43392;50.078;13.704;2022-10-17T03:50:58;97825.72;;;11.01;93.39
56894;BME280;43392;50.078;13.704;2022-10-17T03:53:24;97834.28;;;10.98;93.52
56894;BME280;43392;50.078;13.704;2022-10-17T03:55:52;97833.22;;;10.99;93.67
56894;BME280;43392;50.078;13.704;2022-10-17T03:58:19;97832.41;;;10.98;93.97
56894;BME280;43392;50.078;13.704;2022-10-17T04:00:45;97831.34;;;10.99;94.14
56894;BME280;43392;50.078;13.704;2022-10-17T04:03:12;97821.16;;;11.01;94.42
56894;BME280;43392;50.078;13.704;2022-10-17T04:05:39;97828.94;;;11.03;94.74
56894;BME280;43392;50.078;13.704;2022-10-17T04:08:05;97825.75;;;11.06;94.93
56894;BME280;43392;50.078;13.704;2022-10-17T04:10:32;97825.25;;;11.09;95.33
56894;BME280;43392;50.078;13.704;2022-10-17T04:13:00;97826.34;;;11.13;95.23
56894;BME280;43392;50.078;13.704;2022-10-17T04:15:26;97831.22;;;11.16;95.19
56894;BME280;43392;50.078;13.704;2022-10-17T04:17:53;97839.47;;;11.09;94.77
56894;BME280;43392;50.078;13.704;2022-10-17T04:20:20;97836.47;;;11.01;95.11
56894;BME280;43392;50.078;13.704;2022-10-17T04:22:46;97835.94;;;11.04;95.65
56894;BME280;43392;50.078;13.704;2022-10-17T04:25:13;97834.91;;;11.10;95.78
56894;BME280;43392;50.078;13.704;2022-10-17T04:27:39;97835.75;;;11.15;95.71
56894;BME280;43392;50.078;13.704;2022-10-17T04:30:08;97844.91;;;11.19;95.65
56894;BME280;43392;50.078;13.704;2022-10-17T04:32:35;97839.03;;;11.22;95.78
56894;BME280;43392;50.078;13.704;2022-10-17T04:35:03;97846.81;;;11.24;95.81
56894;BME280;43392;50.078;13.704;2022-10-17T04:37:30;97864.00;;;11.23;95.16
56894;BME280;43392;50.078;13.704;2022-10-17T04:39:56;97871.47;;;11.16;94.81
56894;BME280;43392;50.078;13.704;2022-10-17T04:42:23;97874.56;;;11.03;94.55
56894;BME280;43392;50.078;13.704;2022-10-17T04:44:49;97870.19;;;10.92;94.72
56894;BME280;43392;50.078;13.704;2022-10-17T04:47:17;97867.47;;;10.87;95.47
56894;BME280;43392;50.078;13.704;2022-10-17T04:49:44;97881.16;;;10.90;95.28
56894;BME280;43392;50.078;13.704;2022-10-17T04:52:11;97885.66;;;10.80;95.52
56894;BME280;43392;50.078;13.704;2022-10-17T04:54:37;97886.16;;;10.77;96.08
56894;BME280;43392;50.078;13.704;2022-10-17T04:57:04;97882.16;;;10.79;96.18
56894;BME280;43392;50.078;13.704;2022-10-17T04:59:30;97881.34;;;10.79;95.93
56894;BME280;43392;50.078;13.704;2022-10-17T05:01:57;97891.47;;;10.72;96.49
56894;BME280;43392;50.078;13.704;2022-10-17T05:04:25;97880.72;;;10.72;96.96
56894;BME280;43392;50.078;13.704;2022-10-17T05:06:51;97882.06;;;10.69;96.82
56894;BME280;43392;50.078;13.704;2022-10-17T05:09:18;97889.28;;;10.68;97.37
56894;BME280;43392;50.078;13.704;2022-10-17T05:11:44;97889.88;;;10.76;98.06
56894;BME280;43392;50.078;13.704;2022-10-17T05:14:11;97883.25;;;10.83;97.94
56894;BME280;43392;50.078;13.704;2022-10-17T05:16:38;97883.06;;;10.90;97.87
56894;BME280;43392;50.078;13.704;2022-10-17T05:19:04;97891.13;;;10.95;98.07
56894;BME280;43392;50.078;13.704;2022-10-17T05:21:32;97902.44;;;10.97;97.87
56894;BME280;43392;50.078;13.704;2022-10-17T05:24:04;97901.81;;;10.85;97.49
56894;BME280;43392;50.078;13.704;2022-10-17T05:26:30;97898.25;;;10.79;98.14
56894;BME280;43392;50.078;13.704;2022-10-17T05:28:58;97899.63;;;10.82;98.41
56894;BME280;43392;50.078;13.704;2022-10-17T05:31:27;97899.66;;;10.87;98.51
56894;BME280;43392;50.078;13.704;2022-10-17T05:33:54;97901.31;;;10.93;98.91
56894;BME280;43392;50.078;13.704;2022-10-17T05:36:21;97903.81;;;10.99;99.04
56894;BME280;43392;50.078;13.704;2022-10-17T05:38:49;97906.78;;;11.03;98.79
56894;BME280;43392;50.078;13.704;2022-10-17T05:41:17;97907.94;;;11.12;98.99
56894;BME280;43392;50.078;13.704;2022-10-17T05:43:44;97907.19;;;11.16;98.94
56894;BME280;43392;50.078;13.704;2022-10-17T05:46:10;97907.22;;;11.21;98.93
56894;BME280;43392;50.078;13.704;2022-10-17T05:48:37;97913.38;;;11.22;98.77
56894;BME280;43392;50.078;13.704;2022-10-17T05:51:06;97917.22;;;11.26;98.57
56894;BME280;43392;50.078;13.704;2022-10-17T05:53:34;97919.34;;;11.29;98.58
56894;BME280;43392;50.078;13.704;2022-10-17T05:56:04;97931.38;;;11.21;98.35
56894;BME280;43392;50.078;13.704;2022-10-17T05:58:32;97928.69;;;11.21;98.83
56894;BME280;43392;50.078;13.704;2022-10-17T06:01:01;97916.88;;;11.22;99.10
56894;BME280;43392;50.078;13.704;2022-10-17T06:03:28;97923.91;;;11.23;98.78
56894;BME280;43392;50.078;13.704;2022-10-17T06:05:55;97934.88;;;11.22;98.83
56894;BME280;43392;50.078;13.704;2022-10-17T06:08:22;97939.69;;;11.20;98.89
56894;BME280;43392;50.078;13.704;2022-10-17T06:10:49;97937.00;;;11.20;99.28
56894;BME280;43392;50.078;13.704;2022-10-17T06:13:17;97932.72;;;11.24;99.48
56894;BME280;43392;50.078;13.704;2022-10-17T06:15:44;97940.84;;;11.29;99.28
56894;BME280;43392;50.078;13.704;2022-10-17T06:18:11;97941.97;;;11.33;99.36
56894;BME280;43392;50.078;13.704;2022-10-17T06:20:37;97941.97;;;11.33;99.16
56894;BME280;43392;50.078;13.704;2022-10-17T06:23:04;97951.38;;;11.36;99.47
56894;BME280;43392;50.078;13.704;2022-10-17T06:25:32;97946.53;;;11.32;99.50
56894;BME280;43392;50.078;13.704;2022-10-17T06:27:59;97953.25;;;11.35;99.02
56894;BME280;43392;50.078;13.704;2022-10-17T06:30:27;97955.38;;;11.33;99.45
56894;BME280;43392;50.078;13.704;2022-10-17T06:32:53;97959.69;;;11.34;99.84
56894;BME280;43392;50.078;13.704;2022-10-17T06:35:20;97968.09;;;11.43;100.00
56894;BME280;43392;50.078;13.704;2022-10-17T06:37:47;97958.22;;;11.53;100.00
56894;BME280;43392;50.078;13.704;2022-10-17T06:40:13;97969.34;;;11.67;100.00
56894;BME280;43392;50.078;13.704;2022-10-17T06:42:41;97967.94;;;11.59;99.40
56894;BME280;43392;50.078;13.704;2022-10-17T06:45:09;97978.38;;;11.56;99.50
56894;BME280;43392;50.078;13.704;2022-10-17T06:47:37;97978.31;;;11.46;99.23
56894;BME280;43392;50.078;13.704;2022-10-17T06:50:04;97976.25;;;11.53;100.00
56894;BME280;43392;50.078;13.704;2022-10-17T06:52:30;97985.22;;;12.05;100.00
56894;BME280;43392;50.078;13.704;2022-10-17T06:54:57;97981.56;;;12.21;100.00
56894;BME280;43392;50.078;13.704;2022-10-17T06:57:23;97987.88;;;12.42;100.00
56894;BME280;43392;50.078;13.704;2022-10-17T06:59:50;97984.25;;;12.83;99.47
56894;BME280;43392;50.078;13.704;2022-10-17T07:02:17;97985.91;;;12.99;97.68
56894;BME280;43392;50.078;13.704;2022-10-17T07:04:46;97993.00;;;13.25;96.73
56894;BME280;43392;50.078;13.704;2022-10-17T07:07:12;97985.44;;;13.22;95.41
56894;BME280;43392;50.078;13.704;2022-10-17T07:09:39;97995.41;;;13.07;94.76
56894;BME280;43392;50.078;13.704;2022-10-17T07:12:05;97994.50;;;12.81;94.42
56894;BME280;43392;50.078;13.704;2022-10-17T07:14:32;98001.94;;;12.59;95.67
56894;BME280;43392;50.078;13.704;2022-10-17T07:17:00;97994.06;;;12.42;96.20
56894;BME280;43392;50.078;13.704;2022-10-17T07:19:26;97998.00;;;12.25;96.38
56894;BME280;43392;50.078;13.704;2022-10-17T07:21:55;97998.69;;;12.05;96.53
56894;BME280;43392;50.078;13.704;2022-10-17T07:24:21;98008.34;;;12.01;96.95
56894;BME280;43392;50.078;13.704;2022-10-17T07:26:48;98007.00;;;12.04;97.08
56894;BME280;43392;50.078;13.704;2022-10-17T07:29:14;98007.22;;;11.97;96.97
56894;BME280;43392;50.078;13.704;2022-10-17T07:31:41;98007.13;;;11.87;97.58
56894;BME280;43392;50.078;13.704;2022-10-17T07:34:09;98011.16;;;11.84;97.84
56894;BME280;43392;50.078;13.704;2022-10-17T07:36:36;98000.94;;;11.81;98.43
56894;BME280;43392;50.078;13.704;2022-10-17T07:39:04;98002.53;;;11.82;98.71
56894;BME280;43392;50.078;13.704;2022-10-17T07:41:31;98004.22;;;11.88;99.10
56894;BME280;43392;50.078;13.704;2022-10-17T07:43:57;98006.94;;;11.93;99.08
56894;BME280;43392;50.078;13.704;2022-10-17T07:46:24;97999.41;;;11.95;98.85
56894;BME280;43392;50.078;13.704;2022-10-17T07:48:50;98000.00;;;12.03;99.21
56894;BME280;43392;50.078;13.704;2022-10-17T07:51:17;98005.41;;;12.08;98.70
56894;BME280;43392;50.078;13.704;2022-10-17T07:53:44;97997.41;;;12.18;99.17
56894;BME280;43392;50.078;13.704;2022-10-17T07:56:12;97999.09;;;12.29;99.36
56894;BME280;43392;50.078;13.704;2022-10-17T07:58:39;97999.63;;;12.31;98.75
56894;BME280;43392;50.078;13.704;2022-10-17T08:01:07;97999.84;;;12.19;98.56
56894;BME280;43392;50.078;13.704;2022-10-17T08:03:35;97999.25;;;12.12;98.34
56894;BME280;43392;50.078;13.704;2022-10-17T08:06:02;98004.06;;;12.05;98.85
56894;BME280;43392;50.078;13.704;2022-10-17T08:08:29;97999.81;;;12.14;99.58
56894;BME280;43392;50.078;13.704;2022-10-17T08:11:00;97999.03;;;12.19;99.10
56894;BME280;43392;50.078;13.704;2022-10-17T08:13:28;98004.47;;;12.29;99.61
56894;BME280;43392;50.078;13.704;2022-10-17T08:15:58;97992.38;;;12.31;98.76
56894;BME280;43392;50.078;13.704;2022-10-17T08:18:24;98004.72;;;12.27;98.91
56894;BME280;43392;50.078;13.704;2022-10-17T08:20:51;98001.25;;;12.32;99.27
56894;BME280;43392;50.078;13.704;2022-10-17T08:23:18;98009.31;;;12.32;99.25
56894;BME280;43392;50.078;13.704;2022-10-17T08:25:44;98010.13;;;12.32;99.10
56894;BME280;43392;50.078;13.704;2022-10-17T08:28:11;98013.41;;;12.39;99.16
56894;BME280;43392;50.078;13.704;2022-10-17T08:30:39;98024.75;;;12.46;99.37
56894;BME280;43392;50.078;13.704;2022-10-17T08:33:05;98023.94;;;12.51;98.98
56894;BME280;43392;50.078;13.704;2022-10-17T08:35:32;98017.47;;;12.47;98.61
56894;BME280;43392;50.078;13.704;2022-10-17T08:37:59;98018.00;;;12.44;98.83
56894;BME280;43392;50.078;13.704;2022-10-17T08:40:27;98021.47;;;12.39;98.75
56894;BME280;43392;50.078;13.704;2022-10-17T08:43:19;98013.91;;;12.36;99.03
56894;BME280;43392;50.078;13.704;2022-10-17T08:45:53;98018.53;;;12.46;99.38
56894;BME280;43392;50.078;13.704;2022-10-17T08:48:26;98013.19;;;12.51;99.17
56894;BME280;43392;50.078;13.704;2022-10-17T08:50:56;98009.44;;;12.52;98.56
56894;BME280;43392;50.078;13.704;2022-10-17T08:53:27;98016.41;;;12.53;98.95
56894;BME280;43392;50.078;13.704;2022-10-17T08:55:56;98018.88;;;12.59;99.58
56894;BME280;43392;50.078;13.704;2022-10-17T08:58:27;98012.13;;;12.52;99.39
56894;BME280;43392;50.078;13.704;2022-10-17T09:01:02;98015.63;;;12.57;99.36
56894;BME280;43392;50.078;13.704;2022-10-17T09:03:41;98016.97;;;12.55;99.28
56894;BME280;43392;50.078;13.704;2022-10-17T09:06:17;98018.28;;;12.52;99.19
56894;BME280;43392;50.078;13.704;2022-10-17T09:08:51;98020.75;;;12.54;100.00
56894;BME280;43392;50.078;13.704;2022-10-17T09:11:37;98016.47;;;12.63;100.00
56894;BME280;43392;50.078;13.704;2022-10-17T09:14:21;98019.47;;;12.72;99.68
56894;BME280;43392;50.078;13.704;2022-10-17T09:19:56;98022.72;;;12.84;99.67
56894;BME280;43392;50.078;13.704;2022-10-17T09:22:27;98016.00;;;12.86;99.01
56894;BME280;43392;50.078;13.704;2022-10-17T09:24:58;98018.19;;;12.89;98.94
56894;BME280;43392;50.078;13.704;2022-10-17T09:27:33;98014.16;;;12.92;99.02
56894;BME280;43392;50.078;13.704;2022-10-17T09:33:07;98009.28;;;12.89;99.83
56894;BME280;43392;50.078;13.704;2022-10-17T09:35:35;98006.09;;;12.97;99.28
56894;BME280;43392;50.078;13.704;2022-10-17T09:38:02;98003.44;;;13.02;99.24
56894;BME280;43392;50.078;13.704;2022-10-17T09:40:32;97996.97;;;13.03;99.36
56894;BME280;43392;50.078;13.704;2022-10-17T09:43:00;97995.06;;;13.03;99.17
56894;BME280;43392;50.078;13.704;2022-10-17T09:45:32;98002.66;;;13.06;99.06
56894;BME280;43392;50.078;13.704;2022-10-17T09:48:09;97997.03;;;13.08;99.04
56894;BME280;43392;50.078;13.704;2022-10-17T09:50:38;98018.31;;;13.14;98.65
56894;BME280;43392;50.078;13.704;2022-10-17T09:53:12;98011.81;;;13.15;99.00
56894;BME280;43392;50.078;13.704;2022-10-17T09:55:42;98019.13;;;13.15;98.90
56894;BME280;43392;50.078;13.704;2022-10-17T09:58:10;98024.78;;;13.18;98.69
56894;BME280;43392;50.078;13.704;2022-10-17T10:00:39;98016.97;;;13.22;99.18
56894;BME280;43392;50.078;13.704;2022-10-17T10:03:14;98022.09;;;13.28;98.83
56894;BME280;43392;50.078;13.704;2022-10-17T10:05:50;98032.59;;;13.30;98.50
56894;BME280;43392;50.078;13.704;2022-10-17T10:08:25;98017.78;;;13.32;98.51
56894;BME280;43392;50.078;13.704;2022-10-17T10:10:57;98020.50;;;13.38;98.37
56894;BME280;43392;50.078;13.704;2022-10-17T10:13:25;98022.38;;;13.42;98.86
56894;BME280;43392;50.078;13.704;2022-10-17T10:15:52;98014.56;;;13.41;98.25
56894;BME280;43392;50.078;13.704;2022-10-17T10:18:31;98010.00;;;13.41;98.47
56894;BME280;43392;50.078;13.704;2022-10-17T10:21:08;98016.47;;;13.45;98.66
56894;BME280;43392;50.078;13.704;2022-10-17T10:23:36;98008.66;;;13.44;98.20
56894;BME280;43392;50.078;13.704;2022-10-17T10:28:56;98016.97;;;13.37;97.96
56894;BME280;43392;50.078;13.704;2022-10-17T10:31:30;98014.03;;;13.39;98.13
56894;BME280;43392;50.078;13.704;2022-10-17T10:34:01;98004.63;;;13.41;98.67
56894;BME280;43392;50.078;13.704;2022-10-17T10:36:43;98004.34;;;13.43;98.31
56894;BME280;43392;50.078;13.704;2022-10-17T10:39:24;97997.34;;;13.52;98.76
56894;BME280;43392;50.078;13.704;2022-10-17T10:41:52;97998.44;;;13.56;98.28
56894;BME280;43392;50.078;13.704;2022-10-17T10:44:23;97994.63;;;13.57;97.74
56894;BME280;43392;50.078;13.704;2022-10-17T10:47:05;97985.78;;;13.56;98.05
56894;BME280;43392;50.078;13.704;2022-10-17T10:49:33;97992.25;;;13.70;97.93
56894;BME280;43392;50.078;13.704;2022-10-17T10:52:01;97989.78;;;13.79;97.22
56894;BME280;43392;50.078;13.704;2022-10-17T10:54:32;97984.94;;;13.91;97.49
56894;BME280;43392;50.078;13.704;2022-10-17T10:57:03;97987.09;;;14.04;96.99
56894;BME280;43392;50.078;13.704;2022-10-17T10:59:35;97983.81;;;14.17;97.01
56894;BME280;43392;50.078;13.704;2022-10-17T11:02:12;97990.28;;;14.21;96.34
56894;BME280;43392;50.078;13.704;2022-10-17T11:04:45;97992.72;;;14.33;96.03
56894;BME280;43392;50.078;13.704;2022-10-17T11:07:15;97995.38;;;14.48;95.69
56894;BME280;43392;50.078;13.704;2022-10-17T11:09:48;97990.22;;;14.51;95.53
56894;BME280;43392;50.078;13.704;2022-10-17T11:12:20;97992.91;;;14.56;95.26
56894;BME280;43392;50.078;13.704;2022-10-17T11:14:53;97989.34;;;14.66;94.85
56894;BME280;43392;50.078;13.704;2022-10-17T11:17:29;97983.47;;;14.54;94.32
56894;BME280;43392;50.078;13.704;2022-10-17T11:20:05;97987.84;;;14.40;94.44
56894;BME280;43392;50.078;13.704;2022-10-17T11:22:38;97984.31;;;14.29;94.93
56894;BME280;43392;50.078;13.704;2022-10-17T11:25:18;97974.63;;;14.38;94.54
56894;BME280;43392;50.078;13.704;2022-10-17T11:27:47;97978.81;;;14.70;93.67
56894;BME280;43392;50.078;13.704;2022-10-17T11:30:15;97977.91;;;14.94;93.42
56894;BME280;43392;50.078;13.704;2022-10-17T11:32:44;97979.72;;;15.09;93.05
56894;BME280;43392;50.078;13.704;2022-10-17T11:35:18;97978.03;;;15.18;93.13
56894;BME280;43392;50.078;13.704;2022-10-17T11:37:50;97985.03;;;15.19;93.20
56894;BME280;43392;50.078;13.704;2022-10-17T11:40:20;97986.69;;;15.15;93.33
56894;BME280;43392;50.078;13.704;2022-10-17T11:42:52;97981.59;;;15.08;93.25
56894;BME280;43392;50.078;13.704;2022-10-17T11:45:25;97981.06;;;15.06;92.81
56894;BME280;43392;50.078;13.704;2022-10-17T11:47:56;97980.84;;;14.93;93.38
56894;BME280;43392;50.078;13.704;2022-10-17T11:50:27;97979.28;;;14.87;93.62
56894;BME280;43392;50.078;13.704;2022-10-17T11:52:59;97984.94;;;14.90;92.85
56894;BME280;43392;50.078;13.704;2022-10-17T11:55:28;97990.09;;;14.87;93.27
56894;BME280;43392;50.078;13.704;2022-10-17T11:58:02;97993.66;;;14.77;93.40
56894;BME280;43392;50.078;13.704;2022-10-17T12:00:39;97976.38;;;14.73;94.07
56894;BME280;43392;50.078;13.704;2022-10-17T12:03:18;97977.69;;;14.81;93.68
56894;BME280;43392;50.078;13.704;2022-10-17T12:05:51;97979.47;;;15.00;92.49
56894;BME280;43392;50.078;13.704;2022-10-17T12:08:27;97973.22;;;15.05;92.50
56894;BME280;43392;50.078;13.704;2022-10-17T12:10:59;97977.28;;;15.07;92.12
56894;BME280;43392;50.078;13.704;2022-10-17T12:13:51;97974.84;;;15.11;92.78
56894;BME280;43392;50.078;13.704;2022-10-17T12:16:44;97972.63;;;15.18;93.11
56894;BME280;43392;50.078;13.704;2022-10-17T12:19:23;97962.25;;;15.35;92.63
56894;BME280;43392;50.078;13.704;2022-10-17T12:21:58;97965.97;;;15.39;92.14
56894;BME280;43392;50.078;13.704;2022-10-17T12:24:43;97965.53;;;15.27;92.08
56894;BME280;43392;50.078;13.704;2022-10-17T12:27:34;97959.41;;;15.11;92.48
56894;BME280;43392;50.078;13.704;2022-10-17T12:30:04;97965.66;;;15.07;92.99
56894;BME280;43392;50.078;13.704;2022-10-17T12:32:32;97964.03;;;15.11;93.05
56894;BME280;43392;50.078;13.704;2022-10-17T12:34:59;97955.03;;;15.20;92.32
56894;BME280;43392;50.078;13.704;2022-10-17T12:38:00;97958.78;;;15.24;92.38
56894;BME280;43392;50.078;13.704;2022-10-17T12:40:46;97954.75;;;15.22;92.31
56894;BME280;43392;50.078;13.704;2022-10-17T12:49:36;97937.88;;;15.40;91.95
56894;BME280;43392;50.078;13.704;2022-10-17T12:54:59;97941.13;;;15.37;92.05
56894;BME280;43392;50.078;13.704;2022-10-17T12:57:31;97937.94;;;15.30;92.53
56894;BME280;43392;50.078;13.704;2022-10-17T13:00:02;97932.56;;;15.30;92.74
56894;BME280;43392;50.078;13.704;2022-10-17T13:02:30;97933.66;;;15.24;92.90
56894;BME280;43392;50.078;13.704;2022-10-17T13:05:04;97937.44;;;15.28;92.57
56894;BME280;43392;50.078;13.704;2022-10-17T13:07:33;97935.00;;;15.26;93.01
56894;BME280;43392;50.078;13.704;2022-10-17T13:10:03;97938.81;;;15.25;93.24
56894;BME280;43392;50.078;13.704;2022-10-17T13:12:33;97932.63;;;15.20;93.22
56894;BME280;43392;50.078;13.704;2022-10-17T13:15:04;97926.69;;;15.18;93.36
56894;BME280;43392;50.078;13.704;2022-10-17T13:17:33;97927.78;;;15.17;93.51
56894;BME280;43392;50.078;13.704;2022-10-17T13:20:00;97917.81;;;15.12;92.94
56894;BME280;43392;50.078;13.704;2022-10-17T13:22:28;97928.13;;;15.05;93.00
56894;BME280;43392;50.078;13.704;2022-10-17T13:25:07;97927.47;;;14.85;93.64